createdAt,value
2017-12-29T13:05:58.637Z,1.60
2017-12-29T13:08:27.350Z,2.20
2017-12-29T13:10:56.350Z,2.20
2017-12-29T13:13:25.365Z,2.30
2017-12-29T13:15:54.073Z,2.30
2017-12-29T13:18:23.555Z,2.30
2017-12-29T13:28:22.246Z,2.20
2017-12-29T13:30:50.950Z,2.10
2017-12-29T13:33:19.649Z,2.10
2017-12-29T13:35:48.379Z,2.00
2017-12-29T13:38:17.072Z,1.90
2017-12-29T13:40:46.024Z,1.90
2017-12-29T13:43:14.850Z,1.90
2017-12-29T13:45:44.358Z,1.80
2017-12-29T13:48:13.050Z,1.70
2017-12-29T13:50:41.802Z,1.80
2017-12-29T13:53:10.506Z,1.80
2017-12-29T13:55:39.214Z,1.80
2017-12-29T13:58:08.678Z,1.80
2017-12-29T14:00:37.395Z,1.70
2017-12-29T14:03:06.110Z,1.80
2017-12-29T14:05:35.574Z,1.70
2017-12-29T14:08:04.302Z,1.70
2017-12-29T14:10:33.762Z,1.70
2017-12-29T14:13:02.474Z,1.60
2017-12-29T14:15:31.202Z,1.70
2017-12-29T14:17:59.910Z,1.70
2017-12-29T14:20:28.622Z,1.60
2017-12-29T14:22:57.374Z,1.60
2017-12-29T14:25:26.106Z,1.60
2017-12-29T14:27:54.791Z,1.60
2017-12-29T14:30:23.478Z,1.60
2017-12-29T14:32:52.225Z,1.60
2017-12-29T14:35:20.922Z,1.70
2017-12-29T14:37:49.635Z,1.60
2017-12-29T14:40:18.327Z,1.60
2017-12-29T14:42:47.031Z,1.60
2017-12-29T14:45:15.745Z,1.60
2017-12-29T14:47:44.468Z,1.60
2017-12-29T14:52:42.903Z,1.50
2017-12-29T14:55:11.623Z,1.50
2017-12-29T15:00:10.055Z,1.50
2017-12-29T15:05:08.513Z,1.30
2017-12-29T15:07:37.239Z,1.30
2017-12-29T15:10:05.929Z,1.20
2017-12-29T15:12:34.646Z,1.20
2017-12-29T15:15:03.366Z,1.30
2017-12-29T15:17:32.841Z,1.20
2017-12-29T15:20:01.551Z,1.20
2017-12-29T15:22:31.031Z,1.20
2017-12-29T15:30:00.153Z,1.10
2017-12-29T15:32:28.839Z,1.10
2017-12-29T15:34:57.655Z,1.10
2017-12-29T15:37:26.567Z,1.00
2017-12-29T15:39:56.038Z,1.10
2017-12-29T15:42:24.742Z,1.00
2017-12-29T15:44:53.434Z,1.00
2017-12-29T15:47:22.942Z,1.10
2017-12-29T15:49:52.395Z,1.00
2017-12-29T15:52:21.098Z,1.00
2017-12-29T15:59:49.348Z,1.10
2017-12-29T16:04:49.090Z,1.20
2017-12-29T16:07:18.584Z,1.20
2017-12-29T16:09:48.062Z,1.20
2017-12-29T16:12:16.765Z,1.10
2017-12-29T16:14:45.478Z,1.10
2017-12-29T16:17:14.653Z,1.20
2017-12-29T16:19:43.358Z,1.20
2017-12-29T16:22:12.828Z,1.20
2017-12-29T16:24:41.557Z,1.20
2017-12-29T16:27:11.026Z,1.20
2017-12-29T16:29:39.735Z,1.20
2017-12-29T16:32:08.437Z,1.20
2017-12-29T16:34:37.901Z,1.20
2017-12-29T16:37:06.640Z,1.20
2017-12-29T16:39:35.351Z,1.20
2017-12-29T16:42:04.150Z,1.20
2017-12-29T16:44:33.790Z,1.20
2017-12-29T16:47:02.503Z,1.20
2017-12-29T16:49:31.967Z,1.10
2017-12-29T16:52:00.757Z,1.10
2017-12-29T16:54:29.461Z,1.10
2017-12-29T16:56:58.222Z,1.10
2017-12-29T16:59:26.947Z,1.10
2017-12-29T17:01:55.951Z,1.00
2017-12-29T17:04:25.406Z,1.10
2017-12-29T17:06:54.238Z,1.00
2017-12-29T17:09:23.722Z,1.10
2017-12-29T17:11:52.430Z,1.10
2017-12-29T17:14:21.134Z,1.10
2017-12-29T17:16:50.600Z,1.10
2017-12-29T17:19:19.341Z,1.00
2017-12-29T17:21:48.039Z,1.10
2017-12-29T17:24:16.769Z,1.00
2017-12-29T17:26:45.475Z,0.60
2017-12-29T17:29:14.318Z,0.50
2017-12-29T17:31:43.014Z,0.40
2017-12-29T17:34:11.691Z,0.40
2017-12-29T17:36:40.415Z,0.40
2017-12-29T17:39:09.118Z,0.40
2017-12-29T17:41:37.957Z,0.40
2017-12-29T17:44:06.795Z,0.50
2017-12-29T17:46:35.506Z,0.50
2017-12-29T17:49:05.017Z,0.50
2017-12-29T17:51:34.498Z,0.50
2017-12-29T17:54:03.207Z,0.50
2017-12-29T17:56:32.701Z,0.60
2017-12-29T17:59:01.513Z,0.50
2017-12-29T18:01:31.007Z,0.40
2017-12-29T18:04:00.495Z,0.30
2017-12-29T18:06:29.214Z,0.20
2017-12-29T18:08:58.678Z,0.20
2017-12-29T18:11:27.714Z,0.10
2017-12-29T18:13:56.439Z,0.10
2017-12-29T18:16:25.140Z,0.10
2017-12-29T18:18:53.862Z,0.10
2017-12-29T18:21:23.426Z,0.20
2017-12-29T18:23:52.134Z,0.10
2017-12-29T18:26:21.031Z,2.00
2017-12-29T18:31:20.254Z,0.20
2017-12-29T18:33:48.970Z,0.10
2017-12-29T18:36:18.438Z,0.20
2017-12-29T18:38:47.155Z,0.20
2017-12-29T18:41:16.626Z,0.20
2017-12-29T18:43:45.454Z,0.10
2017-12-29T18:46:14.913Z,0.20
2017-12-29T18:48:43.607Z,0.10
2017-12-29T18:51:12.318Z,0.20
2017-12-29T18:53:41.542Z,0.20
2017-12-29T18:56:11.028Z,0.20
2017-12-29T18:58:39.777Z,0.20
2017-12-29T19:01:08.508Z,0.20
2017-12-29T19:03:37.987Z,0.20
2017-12-29T19:06:07.507Z,0.20
2017-12-29T19:08:36.223Z,0.20
2017-12-29T19:13:34.830Z,-0.60
2017-12-29T19:16:03.566Z,0.30
2017-12-29T19:18:32.260Z,0.30
2017-12-29T19:21:01.173Z,0.30
2017-12-29T19:23:29.952Z,0.30
2017-12-29T19:25:58.649Z,0.30
2017-12-29T19:28:27.386Z,0.30
2017-12-29T19:30:56.113Z,0.30
2017-12-29T19:33:24.935Z,0.30
2017-12-29T19:35:54.407Z,0.30
2017-12-29T19:38:23.183Z,0.20
2017-12-29T19:40:51.894Z,0.30
2017-12-29T19:43:20.611Z,0.30
2017-12-29T19:45:49.332Z,0.30
2017-12-29T19:50:47.746Z,0.40
2017-12-29T19:53:16.583Z,0.40
2017-12-29T19:55:46.081Z,0.40
2017-12-29T19:58:15.591Z,0.40
2017-12-29T20:00:45.195Z,0.40
2017-12-29T20:03:13.900Z,0.30
2017-12-29T20:05:43.376Z,0.40
2017-12-29T20:08:12.875Z,0.40
2017-12-29T20:10:41.590Z,0.40
2017-12-29T20:13:11.053Z,0.40
2017-12-29T20:15:39.765Z,0.30
2017-12-29T20:18:08.490Z,0.40
2017-12-29T20:20:37.261Z,0.40
2017-12-29T20:23:06.731Z,0.40
2017-12-29T20:25:35.457Z,0.40
2017-12-29T20:28:04.957Z,0.50
2017-12-29T20:30:34.554Z,0.60
2017-12-29T20:33:03.321Z,0.50
2017-12-29T20:35:32.022Z,0.50
2017-12-29T20:38:00.738Z,0.60
2017-12-29T20:40:30.235Z,0.60
2017-12-29T20:42:59.679Z,0.60
2017-12-29T20:45:28.434Z,0.50
2017-12-29T20:47:57.923Z,0.80
2017-12-29T20:50:26.730Z,0.70
2017-12-29T20:52:56.073Z,0.70
2017-12-29T20:55:24.603Z,0.60
2017-12-29T20:57:54.063Z,0.70
2017-12-29T21:00:22.799Z,0.70
2017-12-29T21:02:52.254Z,0.60
2017-12-29T21:05:21.134Z,0.50
2017-12-29T21:07:49.870Z,0.50
2017-12-29T21:10:18.592Z,0.50
2017-12-29T21:12:47.305Z,0.50
2017-12-29T21:15:16.023Z,0.50
2017-12-29T21:17:44.755Z,0.60
2017-12-29T21:20:14.266Z,0.80
2017-12-29T21:22:42.986Z,0.70
2017-12-29T21:25:11.789Z,0.90
2017-12-29T21:27:40.497Z,1.00
2017-12-29T21:30:08.861Z,1.00
2017-12-29T21:32:37.570Z,1.10
2017-12-29T21:35:06.280Z,1.00
2017-12-29T21:37:35.754Z,0.90
2017-12-29T21:40:04.460Z,0.90
2017-12-29T21:42:33.193Z,1.00
2017-12-29T21:45:01.920Z,1.00
2017-12-29T21:47:30.610Z,1.00
2017-12-29T21:49:59.328Z,-0.30
2017-12-29T21:52:28.795Z,1.10
2017-12-29T21:54:57.524Z,1.00
2017-12-29T21:57:26.981Z,1.20
2017-12-29T21:59:55.702Z,1.10
2017-12-29T22:02:25.163Z,1.20
2017-12-29T22:04:53.893Z,1.20
2017-12-29T22:07:22.614Z,1.20
2017-12-29T22:09:51.310Z,1.20
2017-12-29T22:12:20.043Z,1.40
2017-12-29T22:14:48.770Z,1.40
2017-12-29T22:17:17.650Z,1.50
2017-12-29T22:19:47.344Z,1.50
2017-12-29T22:22:16.050Z,1.40
2017-12-29T22:24:45.538Z,1.50
2017-12-29T22:27:14.241Z,1.40
2017-12-29T22:29:43.727Z,1.40
2017-12-29T22:32:12.431Z,1.40
2017-12-29T22:34:41.899Z,1.40
2017-12-29T22:37:10.622Z,1.40
2017-12-29T22:39:40.093Z,1.60
2017-12-29T22:42:08.798Z,1.50
2017-12-29T22:44:37.499Z,1.70
2017-12-29T22:47:06.982Z,1.80
2017-12-29T22:49:35.679Z,1.80
2017-12-29T22:52:04.546Z,1.90
2017-12-29T22:54:33.280Z,1.70
2017-12-29T23:09:30.612Z,1.80
2017-12-29T23:12:00.079Z,2.00
2017-12-29T23:14:29.028Z,1.90
2017-12-29T23:16:58.165Z,1.90
2017-12-29T23:19:26.922Z,1.80
2017-12-29T23:21:57.287Z,1.90
2017-12-29T23:24:26.395Z,2.00
2017-12-29T23:31:54.537Z,2.00
2017-12-29T23:39:23.564Z,2.00
